KJMS

Jamestown Regional Airport

Jamestown, North Dakota, USA
METAR KJMS 210356Z AUTO 35006KT 10SM CLR 13/11 A3017 RMK AO2 SLP219 T01280106
Observed Flight Rules
Aug-21 @ 03:56 UTC (15 minutes ago) Visual Flight Rules
Wind Visibility Clouds
350° at 6 knots 10 miles
  • Clear skies
Temperatures Readings
Current 13°C / 55°F
Dewpoint 11°C / 52°F
Humidity 88%
Altimeter 30.17" Hg
Pressure 1021.9 hPa
Elevation 455
METAR KJMS 210356Z AUTO 35006KT 10SM CLR 13/11 A3017 RMK AO2 SLP219 T01280106
Observed Flight Rules
Aug-21 @ 03:56 UTC
(15 minutes ago)
VFR
Wind Visibility
350° at 6 knots 10 miles
Clouds
  • Clear skies
Temperature Dewpoint
13°C / 55°F 11°C / 52°F
Humidity Altimeter Pressure
88% 30.17" Hg 1021.9 hPa